Time;durP1;ratioP1;P1;durP2;ratioP2;P2;SDS_P1;SDS_P2;PMS_P1;PMS_P2;Temp;Humidity;BMP_temperature;BMP_pressure;BME280_temperature;BME280_humidity;BME280_pressure;Samples;Min_cycle;Max_cycle;Signal;HPM_P1;HPM_P2
2022/12/01 00:01:18;;;;;;;;;;;;;;;20.10;53.02;102347.88;105598;1271;23300;-68
2022/12/01 00:03:45;;;;;;;;;2.00;2.00;;;;;20.11;53.02;102347.64;105634;1279;19031;-66
2022/12/01 00:06:14;;;;;;;;;2.00;2.00;;;;;20.11;53.10;102349.06;105623;1281;20085;-65
2022/12/01 00:10:24;;;;;;;;;5.00;5.00;;;;;20.12;53.09;102348.30;105590;1288;23160;-67
2022/12/01 00:11:29;;;;;;;;;2.00;2.00;;;;;20.11;53.09;102353.08;105685;1288;19357;-68
2022/12/01 00:13:57;;;;;;;;;2.00;2.00;;;;;20.10;53.34;102347.12;105675;1297;21669;-66
2022/12/01 00:16:24;;;;;;;;;4.00;4.00;;;;;20.10;53.12;102350.06;105631;1295;23358;-65
2022/12/01 00:18:52;;;;;;;;;5.00;4.00;;;;;20.11;53.31;102349.11;105451;1287;19747;-65
2022/12/01 00:21:19;;;;;;;;;2.00;2.00;;;;;20.11;53.22;102351.05;105652;1282;23468;-67
2022/12/01 00:23:47;;;;;;;;;4.00;4.00;;;;;20.11;53.38;102345.30;105651;1279;19269;-66
2022/12/01 00:26:14;;;;;;;;;2.00;2.00;;;;;20.11;53.20;102344.02;105688;1296;19310;-65
2022/12/01 00:28:42;;;;;;;;;4.00;2.00;;;;;20.11;53.03;102343.85;105650;1297;20111;-66
2022/12/01 00:31:09;;;;;;;;;4.00;4.00;;;;;20.10;53.19;102348.95;105672;1274;19915;-66
2022/12/01 00:33:37;;;;;;;;;4.00;4.00;;;;;20.10;53.21;102346.08;105655;1296;19361;-67
2022/12/01 00:36:04;;;;;;;;;3.00;3.00;;;;;20.10;53.18;102344.80;105653;1292;20565;-65
2022/12/01 00:38:31;;;;;;;;;;;;;;;20.10;52.88;102343.89;105707;1287;19181;-69
2022/12/01 00:40:59;;;;;;;;;2.00;2.00;;;;;20.09;53.12;102340.89;105687;1279;18979;-66
2022/12/01 00:43:26;;;;;;;;;4.00;4.00;;;;;20.09;53.00;102337.41;105639;1303;21424;-66
2022/12/01 00:45:55;;;;;;;;;4.00;2.00;;;;;20.10;52.89;102340.65;105664;1294;20839;-66
2022/12/01 00:48:22;;;;;;;;;5.00;4.00;;;;;20.09;52.94;102338.50;105644;1297;23099;-66
2022/12/01 00:50:49;;;;;;;;;4.00;4.00;;;;;20.09;52.91;102338.17;105635;1288;20213;-66
2022/12/01 00:53:17;;;;;;;;;3.00;2.00;;;;;20.10;52.91;102337.20;105710;1296;23392;-66
2022/12/01 00:55:44;;;;;;;;;3.00;2.00;;;;;20.09;53.03;102332.52;105658;1296;20528;-66
2022/12/01 00:58:12;;;;;;;;;2.00;2.00;;;;;20.09;52.96;102330.39;105653;1297;21777;-66
2022/12/01 01:00:39;;;;;;;;;4.50;4.00;;;;;20.09;52.90;102333.99;105657;1296;19202;-65
2022/12/01 01:03:07;;;;;;;;;4.00;2.00;;;;;20.08;52.90;102332.25;105672;1289;19644;-66
2022/12/01 01:05:34;;;;;;;;;5.00;5.00;;;;;20.07;52.86;102327.30;105694;1271;20092;-68
2022/12/01 01:08:01;;;;;;;;;4.00;4.00;;;;;20.08;52.79;102328.12;105673;1281;24765;-66
2022/12/01 01:10:29;;;;;;;;;;;;;;;20.08;52.90;102331.36;105668;1279;19162;-65
2022/12/01 01:12:56;;;;;;;;;2.00;2.00;;;;;20.09;53.02;102332.59;105577;1279;20198;-65
2022/12/01 01:15:24;;;;;;;;;2.00;2.00;;;;;20.09;52.82;102330.93;105664;1274;19229;-66
2022/12/01 01:17:51;;;;;;;;;4.00;4.00;;;;;20.08;52.82;102326.85;105670;1297;19453;-64
2022/12/01 01:20:19;;;;;;;;;4.00;3.00;;;;;20.07;52.99;102327.42;105648;1297;21611;-66
2022/12/01 01:22:46;;;;;;;;;5.00;4.00;;;;;20.07;52.82;102326.33;105644;1297;19245;-66
2022/12/01 01:25:13;;;;;;;;;3.00;3.00;;;;;20.07;52.91;102326.02;105699;1288;24777;-67
2022/12/01 01:27:41;;;;;;;;;2.00;2.00;;;;;20.07;52.89;102325.34;105668;1282;20081;-63
2022/12/01 01:30:08;;;;;;;;;4.00;2.00;;;;;20.06;52.66;102324.30;105616;1282;20811;-66
2022/12/01 01:32:36;;;;;;;;;5.00;4.50;;;;;20.07;52.77;102325.83;105652;1282;23079;-69
2022/12/01 01:35:03;;;;;;;;;2.00;2.00;;;;;20.06;52.67;102329.00;105689;1287;20179;-66
2022/12/01 01:37:31;;;;;;;;;4.00;4.00;;;;;20.06;52.69;102324.98;105658;1276;19342;-66
2022/12/01 01:39:58;;;;;;;;;;;;;;;20.06;52.77;102323.92;105651;1288;19279;-66
2022/12/01 01:42:25;;;;;;;;;4.00;2.00;;;;;20.06;52.61;102323.36;105677;1282;20097;-66
2022/12/01 01:44:53;;;;;;;;;4.00;2.00;;;;;20.06;52.61;102322.52;105634;1288;19319;-66
2022/12/01 01:47:20;;;;;;;;;4.00;4.00;;;;;20.07;52.72;102324.94;105723;1297;19280;-67
2022/12/01 01:49:48;;;;;;;;;6.00;4.50;;;;;20.05;52.66;102322.05;105666;1281;21507;-67
2022/12/01 01:52:15;;;;;;;;;4.00;2.00;;;;;20.05;52.65;102321.65;105634;1303;19577;-63
2022/12/01 01:54:42;;;;;;;;;4.50;4.00;;;;;20.05;52.75;102321.46;105644;1297;20999;-66
2022/12/01 01:57:10;;;;;;;;;2.00;2.00;;;;;20.06;52.53;102321.27;105616;1280;22670;-66
2022/12/01 01:59:37;;;;;;;;;2.00;2.00;;;;;20.05;52.75;102320.17;105584;1272;19634;-66
2022/12/01 02:02:06;;;;;;;;;2.00;2.00;;;;;20.06;52.78;102320.48;105671;1295;19455;-66
2022/12/01 02:04:33;;;;;;;;;2.00;2.00;;;;;20.05;52.61;102321.48;105702;1279;21530;-64
2022/12/01 02:07:01;;;;;;;;;2.00;2.00;;;;;20.05;52.47;102320.40;105663;1280;20907;-65
2022/12/01 02:09:28;;;;;;;;;2.00;2.00;;;;;20.05;52.63;102318.37;105668;1295;20973;-66
2022/12/01 02:11:55;;;;;;;;;4.00;4.00;;;;;20.05;52.61;102324.92;105687;1288;21596;-66
2022/12/01 02:14:23;;;;;;;;;2.00;2.00;;;;;20.05;52.43;102326.42;105722;1296;19151;-66
2022/12/01 02:16:51;;;;;;;;;4.00;4.00;;;;;20.04;52.64;102322.13;105672;1297;19280;-65
2022/12/01 02:19:18;;;;;;;;;2.00;2.00;;;;;20.05;52.67;102321.85;105668;1280;22746;-68
2022/12/01 02:21:46;;;;;;;;;2.00;2.00;;;;;20.04;52.43;102323.02;105622;1288;19635;-65
2022/12/01 02:24:13;;;;;;;;;4.00;4.00;;;;;20.04;52.71;102320.52;105624;1296;19637;-66
2022/12/01 02:26:42;;;;;;;;;4.00;3.00;;;;;20.04;52.45;102325.56;105647;1291;21716;-68
2022/12/01 02:29:10;;;;;;;;;4.00;4.00;;;;;20.03;52.80;102327.05;105679;1297;19253;-67
2022/12/01 02:31:37;;;;;;;;;4.50;4.00;;;;;20.03;52.74;102325.21;105656;1289;20449;-66
2022/12/01 02:34:04;;;;;;;;;2.00;2.00;;;;;20.02;52.71;102325.14;105667;1279;20228;-65
2022/12/01 02:36:32;;;;;;;;;2.00;2.00;;;;;20.02;52.54;102322.27;105636;1295;23152;-65
2022/12/01 02:38:59;;;;;;;;;5.00;4.00;;;;;20.02;52.65;102320.27;105634;1295;19274;-65
2022/12/01 02:41:28;;;;;;;;;4.00;4.00;;;;;20.02;52.51;102317.52;105652;1297;20055;-64
2022/12/01 02:43:55;;;;;;;;;5.00;4.00;;;;;20.01;52.55;102317.08;105731;1281;21469;-65
2022/12/01 02:46:23;;;;;;;;;4.00;2.00;;;;;20.01;52.69;102318.14;105613;1296;19318;-65
2022/12/01 02:48:51;;;;;;;;;4.00;4.00;;;;;20.02;52.70;102311.58;105668;1279;20262;-66
2022/12/01 02:51:18;;;;;;;;;2.00;2.00;;;;;20.01;52.72;102308.20;105672;1279;19585;-64
2022/12/01 02:53:45;;;;;;;;;5.00;5.00;;;;;20.01;52.68;102309.63;105645;1289;19820;-64
2022/12/01 02:56:14;;;;;;;;;2.00;2.00;;;;;20.01;52.47;102307.80;105698;1296;20440;-65
2022/12/01 02:58:42;;;;;;;;;4.00;3.00;;;;;20.00;52.48;102303.16;105671;1288;23199;-67
2022/12/01 03:01:09;;;;;;;;;4.00;4.00;;;;;20.01;52.62;102304.39;105650;1282;19254;-66
2022/12/01 03:03:37;;;;;;;;;4.00;4.00;;;;;20.00;52.50;102302.81;105675;1291;21634;-66
2022/12/01 03:06:04;;;;;;;;;2.00;2.00;;;;;20.01;52.78;102306.16;105639;1296;19245;-67
2022/12/01 03:08:32;;;;;;;;;3.50;3.00;;;;;20.00;52.69;102304.08;105699;1288;21090;-65
2022/12/01 03:11:00;;;;;;;;;2.00;2.00;;;;;20.02;52.39;102307.98;105656;1295;20199;-65
2022/12/01 03:13:28;;;;;;;;;4.00;4.00;;;;;20.02;52.42;102308.11;105672;1279;19324;-67
2022/12/01 03:15:55;;;;;;;;;4.00;4.00;;;;;20.00;52.41;102305.50;105736;1287;22284;-67
2022/12/01 03:18:23;;;;;;;;;2.00;2.00;;;;;19.99;52.43;102305.77;105690;1297;20200;-66
2022/12/01 03:20:50;;;;;;;;;2.00;2.00;;;;;20.00;52.71;102303.41;105671;1281;19360;-65
2022/12/01 03:23:18;;;;;;;;;6.00;4.50;;;;;20.00;52.60;102305.73;105706;1289;22826;-65
2022/12/01 03:25:45;;;;;;;;;2.00;2.00;;;;;20.00;52.66;102306.80;105659;1297;23169;-64
2022/12/01 03:28:13;;;;;;;;;2.00;2.00;;;;;20.00;52.63;102304.45;105675;1295;21803;-67
2022/12/01 03:30:40;;;;;;;;;2.00;2.00;;;;;20.01;52.46;102302.95;105681;1293;19345;-67
2022/12/01 03:33:09;;;;;;;;;4.00;4.00;;;;;20.00;52.56;102305.19;105672;1295;20041;-66
2022/12/01 03:35:36;;;;;;;;;;;;;;;20.00;52.44;102305.36;105714;1302;24997;-66
2022/12/01 03:38:04;;;;;;;;;4.50;4.00;;;;;20.00;52.34;102303.15;105690;1300;19020;-65
2022/12/01 03:40:31;;;;;;;;;2.00;2.00;;;;;20.01;52.35;102302.40;105697;1289;20102;-64
2022/12/01 03:42:59;;;;;;;;;2.00;2.00;;;;;20.00;52.51;102304.04;105656;1282;20054;-66
2022/12/01 03:45:26;;;;;;;;;2.00;2.00;;;;;20.00;52.39;102304.45;105648;1294;19675;-64
2022/12/01 03:47:54;;;;;;;;;4.00;2.00;;;;;19.99;52.37;102304.20;105666;1274;21622;-66
2022/12/01 03:50:21;;;;;;;;;2.00;2.00;;;;;19.99;52.40;102304.89;105691;1297;23785;-66
2022/12/01 03:52:49;;;;;;;;;4.50;3.00;;;;;20.00;52.63;102309.37;105648;1297;21370;-67
2022/12/01 03:55:16;;;;;;;;;4.00;3.00;;;;;20.00;52.51;102309.58;105667;1295;22808;-66
2022/12/01 03:57:44;;;;;;;;;4.00;4.00;;;;;19.99;52.35;102306.95;105654;1288;19233;-65
2022/12/01 04:00:11;;;;;;;;;4.00;2.00;;;;;19.99;52.54;102307.29;105652;1294;24638;-67
2022/12/01 04:02:39;;;;;;;;;4.00;4.00;;;;;19.99;52.52;102306.95;105667;1300;20306;-66
2022/12/01 04:05:08;;;;;;;;;2.00;2.00;;;;;19.97;52.58;102306.85;105724;1297;19731;-66
2022/12/01 04:07:35;;;;;;;;;2.00;2.00;;;;;19.98;52.50;102307.50;105706;1289;22466;-66
2022/12/01 04:10:02;;;;;;;;;2.00;2.00;;;;;19.98;52.43;102305.89;105662;1282;21483;-67
2022/12/01 04:12:31;;;;;;;;;4.00;4.00;;;;;19.99;52.50;102303.66;105650;1287;19230;-66
2022/12/01 04:14:59;;;;;;;;;1.00;1.00;;;;;19.99;52.45;102298.05;105631;1296;19283;-66
2022/12/01 04:17:26;;;;;;;;;2.00;2.00;;;;;19.99;52.30;102300.60;105645;1294;24719;-68
2022/12/01 04:19:54;;;;;;;;;4.00;4.00;;;;;19.97;52.75;102295.11;105664;1288;19240;-66
2022/12/01 04:22:21;;;;;;;;;;;;;;;19.98;52.38;102293.22;105636;1280;23689;-65
2022/12/01 04:24:49;;;;;;;;;2.00;2.00;;;;;19.97;52.36;102296.52;105668;1279;19955;-66
2022/12/01 04:27:16;;;;;;;;;4.00;4.00;;;;;19.98;52.58;102291.00;105658;1279;19225;-66
2022/12/01 04:29:44;;;;;;;;;3.00;2.00;;;;;19.97;52.44;102288.53;105653;1288;19342;-66
2022/12/01 04:32:12;;;;;;;;;1.50;1.50;;;;;19.97;52.38;102291.60;105672;1286;24263;-65
2022/12/01 04:34:39;;;;;;;;;;;;;;;19.98;52.47;102295.39;105656;1292;23543;-66
2022/12/01 04:37:07;;;;;;;;;4.00;2.00;;;;;19.98;52.62;102293.22;105641;1297;19141;-65
2022/12/01 04:39:34;;;;;;;;;2.00;2.00;;;;;19.97;52.66;102295.08;105634;1295;21528;-66
2022/12/01 04:42:02;;;;;;;;;2.00;2.00;;;;;19.98;52.40;102294.48;105714;1279;19291;-66
2022/12/01 04:44:29;;;;;;;;;4.00;4.00;;;;;19.98;52.44;102295.60;105726;1297;19465;-66
2022/12/01 04:46:56;;;;;;;;;4.00;2.00;;;;;19.98;52.42;102293.77;105683;1279;24786;-66
2022/12/01 04:49:24;;;;;;;;;4.00;2.00;;;;;19.98;52.37;102298.11;105651;1300;19106;-66
2022/12/01 04:51:51;;;;;;;;;2.00;2.00;;;;;19.97;52.43;102298.54;105666;1288;23965;-67
2022/12/01 04:54:19;;;;;;;;;2.00;2.00;;;;;19.97;52.43;102299.28;105679;1280;21758;-66
2022/12/01 04:56:46;;;;;;;;;2.00;2.00;;;;;19.98;52.39;102299.04;105695;1279;19460;-67
2022/12/01 04:59:14;;;;;;;;;4.00;2.00;;;;;19.96;52.53;102300.95;105727;1275;24139;-65
2022/12/01 05:01:41;;;;;;;;;4.00;2.00;;;;;19.97;52.38;102301.63;105685;1271;20065;-66
2022/12/01 05:04:09;;;;;;;;;4.00;4.00;;;;;19.97;52.61;102301.11;105619;1279;23136;-66
2022/12/01 05:06:36;;;;;;;;;2.00;2.00;;;;;19.97;52.49;102297.99;105703;1275;19537;-66
2022/12/01 05:09:04;;;;;;;;;2.00;2.00;;;;;19.96;52.39;102297.88;105660;1297;22268;-66
2022/12/01 05:11:31;;;;;;;;;5.00;4.00;;;;;19.96;52.58;102296.64;105709;1297;19372;-65
2022/12/01 05:13:59;;;;;;;;;4.00;4.00;;;;;19.95;52.42;102300.68;105682;1272;23007;-66
2022/12/01 05:16:26;;;;;;;;;2.00;2.00;;;;;19.96;52.51;102299.36;105665;1297;21538;-66
2022/12/01 05:20:55;;;;;;;;;2.00;2.00;;;;;19.96;52.49;102297.91;105690;1296;20855;-65
2022/12/01 05:21:42;;;;;;;;;4.00;2.00;;;;;19.95;52.58;102299.77;105640;1294;23339;-66
2022/12/01 05:24:10;;;;;;;;;4.00;2.00;;;;;19.95;52.42;102299.94;105656;1295;21830;-66
2022/12/01 05:26:37;;;;;;;;;4.00;2.00;;;;;19.96;52.39;102299.40;105648;1279;20789;-68
2022/12/01 05:29:04;;;;;;;;;4.00;3.00;;;;;19.95;52.35;102297.82;105670;1280;19366;-66
2022/12/01 05:31:32;;;;;;;;;4.00;2.00;;;;;19.96;52.32;102303.20;105635;1297;20228;-66
2022/12/01 05:33:59;;;;;;;;;3.00;3.00;;;;;19.96;52.52;102299.02;105667;1272;19083;-66
2022/12/01 05:36:27;;;;;;;;;3.00;3.00;;;;;19.95;52.53;102302.52;105649;1271;19449;-66
2022/12/01 05:38:54;;;;;;;;;2.00;2.00;;;;;19.94;52.42;102303.15;105617;1281;22616;-66
2022/12/01 05:41:22;;;;;;;;;2.00;2.00;;;;;19.95;52.49;102303.66;105578;1297;19230;-66
2022/12/01 05:43:49;;;;;;;;;2.00;2.00;;;;;19.96;52.26;102304.78;105544;1282;20999;-66
2022/12/01 05:46:16;;;;;;;;;4.00;4.00;;;;;20.00;52.41;102303.73;105515;1298;21694;-66
2022/12/01 05:48:44;;;;;;;;;2.00;2.00;;;;;20.02;52.65;102305.90;105544;1281;19814;-67
2022/12/01 05:51:11;;;;;;;;;3.00;2.00;;;;;20.02;52.92;102306.45;105466;1288;23424;-67
2022/12/01 05:53:39;;;;;;;;;21.00;20.00;;;;;20.03;52.75;102305.66;105567;1298;20082;-67
2022/12/01 05:56:06;;;;;;;;;;;;;;;20.06;52.91;102302.75;105559;1283;24388;-67
2022/12/01 05:58:34;;;;;;;;;92.00;73.00;;;;;20.04;53.59;102300.02;105494;1282;19352;-66
2022/12/01 06:01:02;;;;;;;;;79.50;64.50;;;;;19.96;53.72;102302.98;105532;1282;20246;-66
2022/12/01 06:03:29;;;;;;;;;62.00;53.00;;;;;19.64;51.86;102299.23;105535;1288;23335;-66
2022/12/01 06:05:56;;;;;;;;;59.00;49.00;;;;;19.65;51.33;102303.68;105551;1274;20754;-65
2022/12/01 06:08:24;;;;;;;;;50.00;42.50;;;;;19.75;51.11;102297.97;105510;1274;21508;-66
2022/12/01 06:10:52;;;;;;;;;50.00;42.00;;;;;19.84;50.77;102306.94;105443;1296;23648;-66
2022/12/01 06:13:19;;;;;;;;;43.00;37.00;;;;;19.89;50.70;102307.23;105484;1290;20992;-65
2022/12/01 06:15:46;;;;;;;;;40.00;36.00;;;;;19.93;50.71;102309.62;105517;1282;20107;-66
2022/12/01 06:18:14;;;;;;;;;37.00;33.00;;;;;19.96;50.96;102316.27;105378;1278;20065;-65
2022/12/01 06:20:41;;;;;;;;;30.00;28.00;;;;;19.98;50.76;102318.83;105556;1275;19353;-65
2022/12/01 06:23:09;;;;;;;;;28.00;25.00;;;;;19.98;50.79;102318.38;105466;1297;23412;-66
2022/12/01 06:25:36;;;;;;;;;20.00;18.00;;;;;19.99;51.00;102314.85;105412;1296;21913;-66
2022/12/01 06:28:04;;;;;;;;;23.00;20.00;;;;;20.00;51.00;102315.90;105424;1281;19439;-66
2022/12/01 06:30:31;;;;;;;;;19.00;17.50;;;;;20.01;50.99;102315.65;105456;1282;20440;-66
2022/12/01 06:32:59;;;;;;;;;;;;;;;19.99;51.39;102315.29;105522;1298;23033;-66
2022/12/01 06:35:26;;;;;;;;;;;;;;;19.96;51.39;102318.39;105457;1282;19170;-66
2022/12/01 06:37:54;;;;;;;;;17.00;17.00;;;;;19.97;51.35;102319.82;105450;1289;21913;-66
2022/12/01 06:40:21;;;;;;;;;18.00;14.00;;;;;19.97;51.72;102324.65;105578;1293;19413;-65
2022/12/01 06:42:48;;;;;;;;;13.00;13.00;;;;;19.97;51.72;102323.93;105622;1272;23002;-67
2022/12/01 06:45:16;;;;;;;;;15.00;12.00;;;;;19.97;51.76;102328.50;105647;1297;20087;-66
2022/12/01 06:47:43;;;;;;;;;13.00;13.00;;;;;19.97;51.68;102327.79;105673;1280;23753;-65
2022/12/01 06:50:11;;;;;;;;;12.00;12.00;;;;;19.96;51.85;102330.90;105729;1286;23089;-65
2022/12/01 06:52:38;;;;;;;;;14.00;12.00;;;;;19.97;51.86;102327.92;105615;1271;20067;-66
2022/12/01 06:55:06;;;;;;;;;12.00;12.00;;;;;19.96;51.97;102329.31;105618;1279;19250;-66
2022/12/01 06:57:33;;;;;;;;;12.00;11.00;;;;;19.96;51.95;102330.33;105649;1279;20827;-68
2022/12/01 07:00:01;;;;;;;;;10.00;10.00;;;;;19.96;52.08;102327.98;105624;1279;21632;-66
2022/12/01 07:02:28;;;;;;;;;12.00;12.00;;;;;19.96;52.02;102331.28;105719;1297;19233;-66
2022/12/01 07:04:55;;;;;;;;;8.00;8.00;;;;;19.97;52.19;102332.84;105613;1286;19364;-66
2022/12/01 07:07:23;;;;;;;;;9.00;9.00;;;;;19.97;52.00;102331.00;105619;1279;22703;-66
2022/12/01 07:09:51;;;;;;;;;6.00;6.00;;;;;19.96;52.04;102334.91;105613;1279;19777;-64
2022/12/01 07:12:18;;;;;;;;;8.00;8.00;;;;;19.96;52.26;102338.21;105671;1296;20954;-66
2022/12/01 07:14:45;;;;;;;;;7.00;7.00;;;;;19.99;52.24;102335.01;105533;1282;23733;-66
2022/12/01 07:17:13;;;;;;;;;10.00;8.00;;;;;20.03;52.41;102335.05;105576;1291;19587;-68
2022/12/01 07:19:41;;;;;;;;;7.00;7.00;;;;;20.06;52.51;102340.09;105588;1297;20859;-66
2022/12/01 07:22:08;;;;;;;;;8.00;8.00;;;;;20.06;52.53;102333.88;105657;1272;20091;-66
2022/12/01 07:24:36;;;;;;;;;9.00;9.00;;;;;20.05;52.75;102337.45;105637;1282;19928;-67
2022/12/01 07:27:03;;;;;;;;;9.00;8.00;;;;;20.06;52.76;102339.92;105668;1279;19426;-67
2022/12/01 07:29:31;;;;;;;;;8.00;8.00;;;;;20.06;52.79;102335.94;105709;1297;21783;-67
2022/12/01 07:31:58;;;;;;;;;6.50;6.00;;;;;20.07;52.58;102337.46;105661;1279;19633;-67
2022/12/01 07:34:26;;;;;;;;;7.00;7.00;;;;;20.07;52.71;102336.02;105656;1297;19265;-68
2022/12/01 07:36:54;;;;;;;;;8.00;8.00;;;;;20.08;52.72;102339.38;105692;1292;20355;-68
2022/12/01 07:39:21;;;;;;;;;7.00;7.00;;;;;20.09;52.90;102339.64;105683;1279;23434;-66
2022/12/01 07:41:49;;;;;;;;;5.00;5.00;;;;;20.09;52.69;102335.98;105623;1279;19320;-68
2022/12/01 07:44:17;;;;;;;;;7.00;7.00;;;;;20.09;52.91;102337.95;105642;1281;23560;-66
2022/12/01 07:46:44;;;;;;;;;;;;;;;20.11;53.07;102334.02;105625;1279;19349;-67
2022/12/01 07:49:14;;;;;;;;;7.00;7.00;;;;;20.09;53.17;102334.34;105667;1297;19375;-68
2022/12/01 07:51:42;;;;;;;;;5.00;5.00;;;;;20.10;52.92;102338.30;105672;1297;23570;-68
2022/12/01 07:54:09;;;;;;;;;10.00;8.00;;;;;20.10;53.02;102337.73;105590;1297;19196;-67
2022/12/01 07:56:37;;;;;;;;;;;;;;;20.10;53.09;102338.47;105692;1279;19313;-69
2022/12/01 07:59:04;;;;;;;;;5.00;5.00;;;;;20.09;53.17;102334.91;105640;1297;20081;-68
2022/12/01 08:01:32;;;;;;;;;5.00;5.00;;;;;20.09;53.06;102341.92;105609;1272;23562;-68
2022/12/01 08:04:00;;;;;;;;;4.33;4.33;;;;;20.09;53.25;102339.48;105578;1279;23242;-68
2022/12/01 08:06:27;;;;;;;;;7.00;7.00;;;;;20.08;53.23;102341.94;105588;1297;21444;-67
2022/12/01 08:08:54;;;;;;;;;7.00;7.00;;;;;20.08;53.17;102343.33;105615;1278;19802;-68
2022/12/01 08:11:22;;;;;;;;;4.50;4.00;;;;;20.08;53.28;102343.85;105641;1282;19310;-68
2022/12/01 08:13:49;;;;;;;;;5.00;5.00;;;;;20.09;53.21;102343.08;105399;1279;20259;-66
2022/12/01 08:16:17;;;;;;;;;8.00;7.00;;;;;20.11;53.45;102343.27;105615;1279;19088;-67
2022/12/01 08:18:44;;;;;;;;;4.00;4.00;;;;;20.12;53.27;102341.34;105605;1279;24169;-67
2022/12/01 08:21:12;;;;;;;;;4.00;4.00;;;;;20.13;53.59;102341.45;105526;1288;20083;-66
2022/12/01 08:23:40;;;;;;;;;4.00;2.00;;;;;20.14;53.79;102342.83;105571;1279;23649;-65
2022/12/01 08:26:07;;;;;;;;;7.00;5.00;;;;;20.15;53.91;102346.70;105667;1297;23014;-66
2022/12/01 08:28:35;;;;;;;;;4.00;4.00;;;;;20.16;54.35;102349.35;105603;1297;20043;-65
2022/12/01 08:31:02;;;;;;;;;2.00;2.00;;;;;20.16;54.48;102353.86;105591;1288;21421;-67
2022/12/01 08:33:30;;;;;;;;;4.00;4.00;;;;;20.17;54.72;102354.01;105576;1271;19177;-66
2022/12/01 08:35:57;;;;;;;;;3.00;3.00;;;;;20.19;54.79;102356.73;105602;1297;22625;-65
2022/12/01 08:38:25;;;;;;;;;5.00;5.00;;;;;20.23;54.81;102353.64;105588;1279;19465;-66
2022/12/01 08:40:55;;;;;;;;;5.00;4.00;;;;;20.20;54.47;102352.06;105508;1272;19420;-67
2022/12/01 08:43:22;;;;;;;;;4.00;4.00;;;;;20.18;54.53;102355.33;105525;1289;23497;-67
2022/12/01 08:45:50;;;;;;;;;4.00;4.00;;;;;20.15;54.91;102352.86;105638;1295;19055;-67
2022/12/01 08:48:17;;;;;;;;;4.50;4.00;;;;;20.13;54.88;102356.86;105557;1279;22205;-67
2022/12/01 08:50:44;;;;;;;;;7.00;7.00;;;;;20.13;54.92;102360.14;105568;1279;20147;-66
2022/12/01 08:53:12;;;;;;;;;5.00;4.00;;;;;20.15;54.73;102362.31;105529;1288;19538;-67
2022/12/01 08:55:39;;;;;;;;;5.00;4.00;;;;;20.15;54.80;102358.34;105569;1271;19268;-66
2022/12/01 08:58:07;;;;;;;;;4.00;4.00;;;;;20.14;54.48;102359.67;105599;1272;20070;-67
2022/12/01 09:00:34;;;;;;;;;2.00;2.00;;;;;20.13;54.46;102357.45;105586;1303;19034;-67
2022/12/01 09:03:02;;;;;;;;;2.00;2.00;;;;;20.11;54.52;102358.84;105602;1291;19580;-66
2022/12/01 09:05:29;;;;;;;;;7.00;4.00;;;;;20.10;54.46;102356.59;105611;1291;21472;-67
2022/12/01 09:10:38;;;;;;;;;4.50;4.50;;;;;20.13;54.11;102357.77;105599;1279;19300;-66
2022/12/01 09:13:05;;;;;;;;;2.00;2.00;;;;;20.17;53.96;102357.45;105618;1297;21782;-65
2022/12/01 09:15:33;;;;;;;;;2.00;2.00;;;;;20.17;54.20;102358.39;105613;1295;23562;-67
2022/12/01 09:18:00;;;;;;;;;5.00;4.00;;;;;20.15;53.95;102358.52;105654;1279;19283;-68
2022/12/01 09:20:28;;;;;;;;;6.00;4.00;;;;;20.14;53.83;102360.57;105592;1281;21315;-66
2022/12/01 09:22:55;;;;;;;;;7.00;5.00;;;;;20.13;53.93;102354.55;105489;1297;19588;-67
2022/12/01 09:25:24;;;;;;;;;4.00;4.00;;;;;20.12;53.80;102361.33;105608;1294;19833;-67
2022/12/01 09:27:52;;;;;;;;;4.00;4.00;;;;;20.09;53.95;102356.66;105614;1302;20222;-67
2022/12/01 09:30:19;;;;;;;;;4.00;4.00;;;;;20.09;53.74;102353.25;105575;1279;19681;-67
2022/12/01 09:32:46;;;;;;;;;5.00;4.00;;;;;20.08;53.87;102351.51;105579;1271;19566;-67
2022/12/01 09:35:14;;;;;;;;;5.00;4.50;;;;;20.07;53.86;102348.17;105655;1294;21569;-66
2022/12/01 09:37:42;;;;;;;;;13.00;11.00;;;;;20.06;53.76;102353.70;105562;1295;19097;-66
2022/12/01 09:40:09;;;;;;;;;11.00;11.00;;;;;19.89;52.61;102350.45;105634;1289;22930;-66
2022/12/01 09:42:36;;;;;;;;;10.00;10.00;;;;;19.86;52.44;102352.30;105617;1295;20077;-65
2022/12/01 09:45:04;;;;;;;;;;;;;;;19.86;51.99;102352.52;105666;1295;22653;-65
2022/12/01 09:47:32;;;;;;;;;11.00;10.00;;;;;19.92;51.81;102351.26;105652;1297;19794;-62
2022/12/01 09:49:59;;;;;;;;;10.00;8.00;;;;;19.95;51.58;102349.35;105620;1274;23003;-58
2022/12/01 09:52:26;;;;;;;;;10.00;8.00;;;;;19.96;51.31;102348.49;105572;1279;20081;-61
2022/12/01 09:54:55;;;;;;;;;8.00;8.00;;;;;19.97;51.36;102346.08;105608;1297;20936;-61
2022/12/01 09:57:22;;;;;;;;;8.00;8.00;;;;;19.97;51.60;102338.27;105616;1296;20371;-61
2022/12/01 09:59:49;;;;;;;;;7.00;7.00;;;;;19.97;51.38;102341.37;105625;1295;21472;-59
2022/12/01 10:02:17;;;;;;;;;7.00;7.00;;;;;19.96;51.48;102339.62;105669;1296;19254;-61
2022/12/01 10:04:44;;;;;;;;;7.00;5.00;;;;;19.98;51.45;102338.37;105608;1279;20271;-62
2022/12/01 10:07:12;;;;;;;;;7.00;7.00;;;;;19.98;51.82;102334.20;105627;1279;19556;-62
2022/12/01 10:09:39;;;;;;;;;7.00;7.00;;;;;19.98;51.61;102332.39;105631;1295;19226;-59
2022/12/01 10:12:07;;;;;;;;;7.00;7.00;;;;;19.98;51.74;102334.55;105565;1296;21709;-60
2022/12/01 10:14:34;;;;;;;;;5.00;5.00;;;;;20.00;51.55;102331.52;105626;1297;19811;-60
2022/12/01 10:17:02;;;;;;;;;5.00;5.00;;;;;19.99;51.61;102328.36;105628;1279;20899;-61
2022/12/01 10:19:31;;;;;;;;;5.00;5.00;;;;;19.99;51.73;102329.95;105582;1281;23002;-63
2022/12/01 10:21:59;;;;;;;;;;;;;;;19.98;51.77;102329.27;105600;1281;24007;-62
2022/12/01 10:24:26;;;;;;;;;8.00;7.00;;;;;19.99;51.83;102330.65;105624;1280;19067;-60
2022/12/01 10:26:54;;;;;;;;;7.00;7.00;;;;;19.99;51.90;102326.14;105615;1296;20055;-59
2022/12/01 10:29:21;;;;;;;;;4.50;4.50;;;;;20.00;51.79;102329.34;105631;1280;19315;-58
2022/12/01 10:31:48;;;;;;;;;5.00;5.00;;;;;20.00;51.85;102324.45;105574;1287;23020;-60
2022/12/01 10:34:16;;;;;;;;;8.00;5.00;;;;;20.00;51.87;102324.61;105587;1288;24226;-61
2022/12/01 10:36:43;;;;;;;;;5.00;5.00;;;;;19.99;52.02;102321.98;105553;1274;19898;-61
2022/12/01 10:39:11;;;;;;;;;5.00;5.00;;;;;19.98;51.95;102320.77;105630;1297;19574;-62
2022/12/01 10:41:38;;;;;;;;;4.00;4.00;;;;;19.98;51.93;102316.60;105561;1297;21857;-61
2022/12/01 10:44:06;;;;;;;;;7.00;7.00;;;;;19.99;52.00;102323.27;105617;1296;19189;-60
2022/12/01 10:46:33;;;;;;;;;5.00;5.00;;;;;19.99;51.91;102319.60;105603;1272;19252;-59
2022/12/01 10:49:00;;;;;;;;;4.00;4.00;;;;;19.99;52.18;102319.08;105598;1296;20105;-61
2022/12/01 10:51:28;;;;;;;;;7.00;5.00;;;;;19.96;52.13;102319.46;105584;1281;23199;-59
2022/12/01 10:53:55;;;;;;;;;7.00;5.00;;;;;19.95;52.08;102319.90;105589;1279;19275;-60
2022/12/01 10:56:23;;;;;;;;;5.00;5.00;;;;;19.94;52.06;102318.95;105665;1272;20085;-62
2022/12/01 10:58:50;;;;;;;;;7.00;7.00;;;;;19.94;51.75;102317.02;105591;1271;19444;-56
2022/12/01 11:01:18;;;;;;;;;9.00;8.00;;;;;19.92;51.84;102316.04;105563;1279;24827;-61
2022/12/01 11:03:45;;;;;;;;;8.00;8.00;;;;;19.91;51.45;102319.36;105576;1272;20087;-62
2022/12/01 11:06:13;;;;;;;;;8.00;7.00;;;;;19.92;51.58;102318.80;105618;1279;22776;-62
2022/12/01 11:08:40;;;;;;;;;10.00;10.00;;;;;19.91;51.30;102315.95;105656;1286;19600;-62
2022/12/01 11:11:08;;;;;;;;;12.00;10.00;;;;;19.90;51.01;102316.40;105630;1279;23484;-62
2022/12/01 11:13:35;;;;;;;;;11.00;10.00;;;;;19.88;50.89;102305.11;105607;1279;20001;-63
2022/12/01 11:16:02;;;;;;;;;8.00;8.00;;;;;19.89;50.63;102303.80;105632;1297;19305;-62
2022/12/01 11:18:30;;;;;;;;;11.00;9.00;;;;;19.91;50.50;102303.26;105634;1279;21877;-60
2022/12/01 11:20:57;;;;;;;;;11.00;10.00;;;;;19.91;50.40;102298.92;105604;1295;19598;-61
2022/12/01 11:23:25;;;;;;;;;14.00;13.00;;;;;19.92;50.29;102299.75;105633;1279;23149;-61